Time;durP1;ratioP1;P1;durP2;ratioP2;P2;SDS_P1;SDS_P2;PMS_P1;PMS_P2;Temp;Humidity;BMP_temperature;BMP_pressure;BME280_temperature;BME280_humidity;BME280_pressure;Samples;Min_cycle;Max_cycle;Signal;HPM_P1;HPM_P2
2022/01/21 00:00:54;;;;;;;;;2.00;2.00;;;;;;;;5072023;27;46253;-71
2022/01/21 00:03:20;;;;;;;;;3.00;3.00;;;;;;;;5074669;28;45298;-71
2022/01/21 00:05:45;;;;;;;;;2.25;2.00;;;;;;;;5073561;28;45530;-72
2022/01/21 00:08:10;;;;;;;;;2.00;2.00;;;;;;;;5071312;28;45565;-72
2022/01/21 00:10:35;;;;;;;;;3.00;3.00;;;;;;;;5072100;28;46249;-72
2022/01/21 00:13:01;;;;;;;;;2.25;2.25;;;;;;;;5071954;28;45517;-72
2022/01/21 00:15:26;;;;;;;;;2.00;2.00;;;;;;;;5074278;28;45361;-72
2022/01/21 00:17:51;;;;;;;;;3.25;3.00;;;;;;;;5073811;28;45582;-71
2022/01/21 00:31:13;;;;;;;;;6.25;3.00;;;;;;;;5016288;28;46014;-72
2022/01/21 00:33:39;;;;;;;;;3.75;2.00;;;;;;;;5012209;28;45510;-72
2022/01/21 00:36:05;;;;;;;;;3.00;3.00;;;;;;;;5028270;28;45391;-71
2022/01/21 00:38:31;;;;;;;;;2.50;2.50;;;;;;;;5017102;28;45421;-71
2022/01/21 00:40:59;;;;;;;;;2.25;2.25;;;;;;;;5015927;28;46277;-71
2022/01/21 00:43:32;;;;;;;;;5.50;2.50;;;;;;;;5015823;28;45391;-71
2022/01/21 00:45:58;;;;;;;;;3.00;2.00;;;;;;;;5014296;28;45519;-72
2022/01/21 00:48:24;;;;;;;;;3.50;2.50;;;;;;;;5013807;28;45527;-72
2022/01/21 00:50:49;;;;;;;;;3.50;2.00;;;;;;;;5016713;28;45366;-72
2022/01/21 00:53:14;;;;;;;;;4.00;2.50;;;;;;;;5016243;28;45777;-71
2022/01/21 00:55:39;;;;;;;;;3.00;2.75;;;;;;;;5016476;28;45411;-71
2022/01/21 00:58:04;;;;;;;;;3.25;3.00;;;;;;;;5014886;28;45431;-72
2022/01/21 01:00:31;;;;;;;;;2.25;1.25;;;;;;;;5013299;28;46292;-72
2022/01/21 01:02:56;;;;;;;;;2.50;1.75;;;;;;;;5016832;28;45344;-72
2022/01/21 01:05:22;;;;;;;;;1.50;1.50;;;;;;;;5016100;28;45328;-72
2022/01/21 01:07:47;;;;;;;;;6.25;4.25;;;;;;;;5032312;28;45406;-72
2022/01/21 01:10:19;;;;;;;;;6.75;3.00;;;;;;;;5071322;28;47056;-72
2022/01/21 01:12:59;;;;;;;;;5.50;2.75;;;;;;;;5055831;27;45425;-71
2022/01/21 01:20:52;;;;;;;;;3.50;3.25;;;;;;;;5079370;27;45480;-72
2022/01/21 01:28:29;;;;;;;;;4.25;3.00;;;;;;;;5074446;28;45343;-72
2022/01/21 01:30:54;;;;;;;;;2.00;2.00;;;;;;;;5076374;27;46110;-72
2022/01/21 01:33:24;;;;;;;;;5.50;2.50;;;;;;;;5077209;27;45309;-72
2022/01/21 01:35:50;;;;;;;;;5.75;3.25;;;;;;;;5076043;27;45363;-72
2022/01/21 01:40:54;;;;;;;;;6.00;2.50;;;;;;;;5074033;27;45396;-71
2022/01/21 01:51:22;;;;;;;;;7.00;2.50;;;;;;;;5074255;27;45712;-72
2022/01/21 01:53:53;;;;;;;;;3.25;3.00;;;;;;;;5075424;27;45362;-72
2022/01/21 01:56:21;;;;;;;;;3.00;3.00;;;;;;;;5075907;28;45379;-72
2022/01/21 01:58:46;;;;;;;;;4.50;3.00;;;;;;;;5074127;28;45362;-72
2022/01/21 02:01:11;;;;;;;;;4.00;2.00;;;;;;;;5074087;28;46447;-72
2022/01/21 02:03:37;;;;;;;;;4.75;3.00;;;;;;;;5075106;28;45466;-72
2022/01/21 02:06:03;;;;;;;;;3.75;2.50;;;;;;;;5077105;28;45300;-71
2022/01/21 02:08:29;;;;;;;;;4.25;4.25;;;;;;;;5074265;28;45359;-71
2022/01/21 02:10:54;;;;;;;;;4.25;3.50;;;;;;;;5073375;27;47028;-71
2022/01/21 02:13:28;;;;;;;;;2.50;2.50;;;;;;;;5073937;27;45273;-71
2022/01/21 02:15:57;;;;;;;;;3.50;3.25;;;;;;;;5074038;28;45343;-70
2022/01/21 02:23:53;;;;;;;;;3.50;3.25;;;;;;;;5075501;28;45504;-71
2022/01/21 02:26:19;;;;;;;;;3.00;3.00;;;;;;;;5073763;28;45437;-72
2022/01/21 02:28:44;;;;;;;;;2.00;2.00;;;;;;;;5073504;28;46009;-71
2022/01/21 02:31:09;;;;;;;;;4.50;2.50;;;;;;;;5073177;27;46475;-72
2022/01/21 02:33:34;;;;;;;;;4.25;3.25;;;;;;;;5074717;27;45347;-71
2022/01/21 02:36:00;;;;;;;;;6.00;3.00;;;;;;;;5076527;28;45349;-71
2022/01/21 02:38:25;;;;;;;;;3.50;3.50;;;;;;;;5073173;28;45781;-71
2022/01/21 02:40:50;;;;;;;;;3.50;3.50;;;;;;;;5074965;28;45561;-71
2022/01/21 02:43:15;;;;;;;;;1.50;1.25;;;;;;;;5073676;28;45474;-72
2022/01/21 02:45:45;;;;;;;;;2.50;2.50;;;;;;;;5075815;28;45398;-72
2022/01/21 02:48:10;;;;;;;;;4.25;3.00;;;;;;;;5073207;28;45472;-72
2022/01/21 02:50:36;;;;;;;;;2.00;2.00;;;;;;;;5069311;28;46616;-72
2022/01/21 02:53:26;;;;;;;;;3.50;3.00;;;;;;;;5073182;28;45567;-71
2022/01/21 02:55:52;;;;;;;;;4.00;3.00;;;;;;;;5073412;27;45481;-72
2022/01/21 02:58:17;;;;;;;;;3.00;2.50;;;;;;;;5074366;28;45464;-72
2022/01/21 03:00:42;;;;;;;;;1.25;1.25;;;;;;;;5073294;28;45387;-72
2022/01/21 03:03:07;;;;;;;;;5.00;3.00;;;;;;;;5076966;28;45374;-72
2022/01/21 03:05:38;;;;;;;;;5.25;2.25;;;;;;;;5073285;28;45505;-72
2022/01/21 03:08:03;;;;;;;;;4.75;2.75;;;;;;;;5072841;28;45396;-72
2022/01/21 03:10:28;;;;;;;;;4.75;4.00;;;;;;;;5073059;27;47150;-72
2022/01/21 03:12:54;;;;;;;;;3.50;2.00;;;;;;;;5073242;28;45352;-72
2022/01/21 03:15:19;;;;;;;;;2.00;2.00;;;;;;;;5075385;28;45285;-71
2022/01/21 03:17:44;;;;;;;;;2.50;2.50;;;;;;;;5074206;28;45398;-71
2022/01/21 03:20:09;;;;;;;;;4.00;2.75;;;;;;;;5072796;27;47299;-71
2022/01/21 03:22:36;;;;;;;;;5.25;3.00;;;;;;;;5072634;27;45358;-71
2022/01/21 03:25:01;;;;;;;;;4.50;3.25;;;;;;;;5073139;28;45403;-71
2022/01/21 03:27:27;;;;;;;;;2.25;2.00;;;;;;;;5074623;28;45351;-71
2022/01/21 03:29:52;;;;;;;;;2.00;2.00;;;;;;;;5074003;28;46675;-71
2022/01/21 03:32:17;;;;;;;;;3.00;3.00;;;;;;;;5072679;28;45458;-71
2022/01/21 03:34:42;;;;;;;;;6.25;3.00;;;;;;;;5072360;27;45444;-72
2022/01/21 03:37:07;;;;;;;;;3.00;2.00;;;;;;;;5072440;28;45485;-71
2022/01/21 03:39:33;;;;;;;;;4.50;2.00;;;;;;;;5073831;27;45497;-71
2022/01/21 03:41:58;;;;;;;;;4.25;3.50;;;;;;;;5074994;28;45422;-71
2022/01/21 03:44:23;;;;;;;;;3.25;2.00;;;;;;;;5071655;28;45331;-71
2022/01/21 03:46:48;;;;;;;;;2.00;2.00;;;;;;;;5072266;28;45214;-71
2022/01/21 03:49:14;;;;;;;;;3.00;2.00;;;;;;;;5072498;27;46206;-71
2022/01/21 03:51:39;;;;;;;;;5.25;3.00;;;;;;;;5072662;28;45215;-71
2022/01/21 03:54:04;;;;;;;;;5.75;3.50;;;;;;;;5075985;28;45385;-71
2022/01/21 03:56:29;;;;;;;;;3.00;3.00;;;;;;;;5072273;27;45376;-71
2022/01/21 03:58:55;;;;;;;;;3.00;2.00;;;;;;;;5072230;27;46270;-71
2022/01/21 04:01:23;;;;;;;;;3.50;2.00;;;;;;;;5073750;28;45305;-71
2022/01/21 04:03:48;;;;;;;;;3.00;3.00;;;;;;;;5074891;28;45572;-72
2022/01/21 04:06:13;;;;;;;;;2.00;2.00;;;;;;;;5075070;28;45557;-71
2022/01/21 04:08:38;;;;;;;;;3.00;3.00;;;;;;;;5072734;28;46089;-71
2022/01/21 04:11:03;;;;;;;;;7.50;2.00;;;;;;;;5072189;28;45572;-71
2022/01/21 04:13:29;;;;;;;;;4.00;2.25;;;;;;;;5072114;28;45519;-72
2022/01/21 04:15:55;;;;;;;;;3.00;2.75;;;;;;;;5074723;28;45372;-71
2022/01/21 04:18:22;;;;;;;;;5.00;3.00;;;;;;;;5056312;28;47237;-71
2022/01/21 04:20:48;;;;;;;;;2.50;2.25;;;;;;;;5072712;28;45511;-72
2022/01/21 04:23:14;;;;;;;;;2.50;2.50;;;;;;;;5072107;28;45382;-71
2022/01/21 04:25:39;;;;;;;;;5.25;2.00;;;;;;;;5072013;28;45360;-71
2022/01/21 04:28:05;;;;;;;;;2.00;1.00;;;;;;;;5071026;27;46166;-72
2022/01/21 04:30:30;;;;;;;;;4.75;2.00;;;;;;;;5073574;28;45319;-71
2022/01/21 04:32:56;;;;;;;;;2.75;2.00;;;;;;;;5074240;28;45472;-71
2022/01/21 04:35:21;;;;;;;;;2.50;1.50;;;;;;;;5071520;27;45474;-72
2022/01/21 04:37:56;;;;;;;;;2.50;1.75;;;;;;;;5071709;28;46124;-71
2022/01/21 04:40:26;;;;;;;;;3.00;1.00;;;;;;;;5073465;28;45297;-72
2022/01/21 04:48:19;;;;;;;;;2.00;2.00;;;;;;;;5070882;28;45855;-71
2022/01/21 04:50:54;;;;;;;;;2.50;2.00;;;;;;;;5072917;28;45427;-72
2022/01/21 04:53:20;;;;;;;;;3.75;2.75;;;;;;;;5071913;28;45454;-71
2022/01/21 04:55:45;;;;;;;;;3.50;2.50;;;;;;;;5074406;28;45457;-71
2022/01/21 04:58:10;;;;;;;;;4.75;2.50;;;;;;;;5075153;28;45451;-71
2022/01/21 05:00:36;;;;;;;;;3.25;3.00;;;;;;;;5075922;28;45355;-71
2022/01/21 05:03:01;;;;;;;;;3.00;2.75;;;;;;;;5077682;28;45398;-71
2022/01/21 05:05:27;;;;;;;;;4.00;2.00;;;;;;;;5075101;28;45461;-71
2022/01/21 05:07:53;;;;;;;;;3.00;3.00;;;;;;;;5075106;27;45396;-72
2022/01/21 05:10:19;;;;;;;;;2.00;2.00;;;;;;;;5074777;27;45494;-71
2022/01/21 05:12:44;;;;;;;;;4.00;2.75;;;;;;;;5075198;28;45499;-70
2022/01/21 05:15:19;;;;;;;;;2.25;2.25;;;;;;;;5078906;28;45245;-71
2022/01/21 05:17:48;;;;;;;;;1.25;1.25;;;;;;;;5077131;27;46165;-70
2022/01/21 05:20:13;;;;;;;;;3.50;2.00;;;;;;;;5074330;28;45505;-72
2022/01/21 05:22:39;;;;;;;;;2.50;1.25;;;;;;;;5074864;27;45366;-71
2022/01/21 05:25:04;;;;;;;;;2.00;2.00;;;;;;;;5059651;28;45465;-71
2022/01/21 05:27:29;;;;;;;;;2.50;2.25;;;;;;;;5076337;27;45443;-71
2022/01/21 05:29:55;;;;;;;;;2.00;2.00;;;;;;;;5076763;28;45301;-71
2022/01/21 05:32:20;;;;;;;;;2.50;2.00;;;;;;;;5074374;28;45430;-71
2022/01/21 05:34:45;;;;;;;;;2.00;1.50;;;;;;;;5074702;28;45347;-71
2022/01/21 05:37:10;;;;;;;;;2.50;2.50;;;;;;;;5070805;28;46296;-70
2022/01/21 05:39:35;;;;;;;;;3.25;3.25;;;;;;;;5075039;27;45388;-71
2022/01/21 05:42:03;;;;;;;;;4.00;2.75;;;;;;;;5077494;28;45512;-70
2022/01/21 05:46:55;;;;;;;;;1.75;1.75;;;;;;;;5073682;27;46474;-71
2022/01/21 05:49:21;;;;;;;;;2.75;2.75;;;;;;;;5074219;27;45492;-72
2022/01/21 05:51:46;;;;;;;;;4.00;4.00;;;;;;;;5074512;27;46184;-71
2022/01/21 05:54:12;;;;;;;;;1.00;1.00;;;;;;;;5077937;27;45344;-72
2022/01/21 05:56:38;;;;;;;;;1.25;1.25;;;;;;;;5076194;28;47052;-72
2022/01/21 05:59:04;;;;;;;;;3.00;3.00;;;;;;;;5073934;28;45568;-72
2022/01/21 06:01:29;;;;;;;;;4.75;2.00;;;;;;;;5073796;28;45362;-72
2022/01/21 06:03:54;;;;;;;;;3.50;2.25;;;;;;;;5074429;27;45358;-71
2022/01/21 06:06:20;;;;;;;;;2.00;2.00;;;;;;;;5057016;28;46372;-72
2022/01/21 06:08:45;;;;;;;;;0.00;0.00;;;;;;;;5057109;28;45502;-72
2022/01/21 06:11:10;;;;;;;;;2.00;2.00;;;;;;;;5074352;28;45503;-71
2022/01/21 06:13:36;;;;;;;;;2.00;2.00;;;;;;;;5074077;28;45551;-69
2022/01/21 06:16:02;;;;;;;;;1.75;1.75;;;;;;;;5073572;28;46169;-71
2022/01/21 06:18:27;;;;;;;;;2.00;2.00;;;;;;;;5075863;27;45403;-71
2022/01/21 06:20:52;;;;;;;;;2.00;2.00;;;;;;;;5075557;28;45509;-71
2022/01/21 06:23:18;;;;;;;;;1.75;1.75;;;;;;;;5073782;27;45582;-72
2022/01/21 06:25:43;;;;;;;;;2.00;2.00;;;;;;;;5073720;27;46304;-72
2022/01/21 06:28:08;;;;;;;;;2.75;2.75;;;;;;;;5073764;27;45646;-70
2022/01/21 06:30:33;;;;;;;;;0.00;0.00;;;;;;;;5075023;28;45415;-71
2022/01/21 06:32:59;;;;;;;;;1.75;1.75;;;;;;;;5076293;27;45610;-71
2022/01/21 06:35:24;;;;;;;;;2.50;1.50;;;;;;;;5073545;27;45484;-71
2022/01/21 06:37:49;;;;;;;;;2.00;2.00;;;;;;;;5073764;28;45438;-71
2022/01/21 06:40:17;;;;;;;;;2.00;2.00;;;;;;;;5075839;28;45386;-73
2022/01/21 06:42:43;;;;;;;;;3.00;2.00;;;;;;;;5073445;28;45265;-72
2022/01/21 06:45:08;;;;;;;;;4.00;2.00;;;;;;;;5076779;28;45269;-72
2022/01/21 06:47:33;;;;;;;;;3.25;2.50;;;;;;;;5073042;28;45496;-72
2022/01/21 06:49:59;;;;;;;;;2.50;2.50;;;;;;;;5073591;27;45494;-73
2022/01/21 06:52:25;;;;;;;;;2.50;2.00;;;;;;;;5073249;28;45441;-70
2022/01/21 06:54:50;;;;;;;;;4.00;3.00;;;;;;;;5073279;28;45416;-71
2022/01/21 06:57:15;;;;;;;;;4.25;3.25;;;;;;;;5073846;28;45361;-71
2022/01/21 06:59:41;;;;;;;;;2.00;2.00;;;;;;;;5066455;28;45308;-70
2022/01/21 07:02:06;;;;;;;;;1.50;1.50;;;;;;;;5069607;27;45516;-70
2022/01/21 07:04:32;;;;;;;;;3.25;2.00;;;;;;;;5072154;27;46299;-71
2022/01/21 07:06:58;;;;;;;;;2.00;2.00;;;;;;;;5071569;28;46634;-72
2022/01/21 07:09:23;;;;;;;;;3.25;3.25;;;;;;;;5076299;27;45263;-71
2022/01/21 07:11:49;;;;;;;;;2.50;2.00;;;;;;;;5075976;27;45266;-71
2022/01/21 07:14:14;;;;;;;;;2.25;2.25;;;;;;;;5072847;28;47201;-71
2022/01/21 07:16:39;;;;;;;;;3.50;2.25;;;;;;;;5074861;28;45272;-71
2022/01/21 07:19:04;;;;;;;;;1.25;1.25;;;;;;;;5074305;28;45429;-70
2022/01/21 07:21:29;;;;;;;;;2.00;2.00;;;;;;;;5055111;28;45256;-72
2022/01/21 07:23:55;;;;;;;;;1.75;1.75;;;;;;;;5076278;27;45528;-71
2022/01/21 07:26:20;;;;;;;;;1.50;1.50;;;;;;;;5073835;27;45234;-70
2022/01/21 07:28:45;;;;;;;;;3.75;2.25;;;;;;;;5073405;27;45362;-71
2022/01/21 07:31:10;;;;;;;;;1.75;1.75;;;;;;;;5086753;27;45256;-71
2022/01/21 07:33:37;;;;;;;;;4.25;2.75;;;;;;;;5080688;27;45508;-71
2022/01/21 07:36:03;;;;;;;;;5.00;3.00;;;;;;;;5076515;28;45276;-70
2022/01/21 07:38:28;;;;;;;;;3.25;3.25;;;;;;;;5075680;28;45677;-72
2022/01/21 07:40:53;;;;;;;;;5.50;3.25;;;;;;;;5075826;27;45556;-71
2022/01/21 07:43:18;;;;;;;;;2.25;2.25;;;;;;;;5074753;27;46518;-71
2022/01/21 07:45:44;;;;;;;;;4.25;4.00;;;;;;;;5072773;28;45552;-72
2022/01/21 07:48:09;;;;;;;;;4.25;3.00;;;;;;;;5076207;28;45337;-70
2022/01/21 07:50:35;;;;;;;;;5.50;3.00;;;;;;;;5074240;28;45300;-71
2022/01/21 07:53:05;;;;;;;;;4.75;2.50;;;;;;;;5073777;27;45601;-71
2022/01/21 07:55:30;;;;;;;;;4.00;3.00;;;;;;;;5074482;27;45483;-71
2022/01/21 07:57:56;;;;;;;;;3.75;3.00;;;;;;;;5074092;27;45276;-71
2022/01/21 08:00:21;;;;;;;;;4.75;3.50;;;;;;;;5075372;27;45477;-71
2022/01/21 08:02:47;;;;;;;;;6.00;3.00;;;;;;;;5075861;28;46036;-71
2022/01/21 08:05:12;;;;;;;;;4.00;4.00;;;;;;;;5073916;28;45332;-71
2022/01/21 08:07:37;;;;;;;;;5.00;4.25;;;;;;;;5074437;28;45364;-71
2022/01/21 08:10:04;;;;;;;;;3.75;3.50;;;;;;;;5081771;27;45501;-71
2022/01/21 08:12:29;;;;;;;;;3.75;3.75;;;;;;;;5073854;28;46113;-71
2022/01/21 08:14:54;;;;;;;;;3.00;3.00;;;;;;;;5074184;27;45468;-71
2022/01/21 08:17:20;;;;;;;;;4.00;4.00;;;;;;;;5072412;28;45296;-71
2022/01/21 08:19:45;;;;;;;;;5.00;4.00;;;;;;;;5072699;27;45410;-70
2022/01/21 08:22:10;;;;;;;;;5.25;4.75;;;;;;;;5073345;27;47040;-71
2022/01/21 08:24:35;;;;;;;;;4.00;4.00;;;;;;;;5072678;28;45384;-71
2022/01/21 08:27:01;;;;;;;;;2.75;2.25;;;;;;;;5077322;27;45465;-71
2022/01/21 08:29:26;;;;;;;;;3.00;3.00;;;;;;;;5076967;27;45310;-71
2022/01/21 08:31:51;;;;;;;;;7.00;4.75;;;;;;;;5079425;27;45389;-71
2022/01/21 08:34:16;;;;;;;;;5.50;4.00;;;;;;;;5088581;27;45433;-71
2022/01/21 08:36:43;;;;;;;;;5.00;4.75;;;;;;;;5077367;28;45782;-73
2022/01/21 08:39:09;;;;;;;;;4.75;4.00;;;;;;;;5078382;28;45462;-71
2022/01/21 08:41:34;;;;;;;;;3.00;3.00;;;;;;;;5076181;28;46231;-70
2022/01/21 08:43:59;;;;;;;;;3.00;3.00;;;;;;;;5078310;28;45449;-72
2022/01/21 08:46:25;;;;;;;;;6.00;4.00;;;;;;;;5075848;27;45217;-71
2022/01/21 08:48:50;;;;;;;;;5.25;5.00;;;;;;;;5090917;27;45311;-71
2022/01/21 08:51:23;;;;;;;;;5.00;5.00;;;;;;;;5087334;27;46202;-71
2022/01/21 08:53:48;;;;;;;;;5.00;5.00;;;;;;;;5078406;28;45436;-71
2022/01/21 08:56:15;;;;;;;;;3.50;3.50;;;;;;;;5075774;28;45407;-72
2022/01/21 08:58:41;;;;;;;;;4.75;3.75;;;;;;;;5075247;27;45565;-70
2022/01/21 09:01:07;;;;;;;;;4.75;4.00;;;;;;;;5089134;27;46253;-71
2022/01/21 09:03:32;;;;;;;;;4.00;4.00;;;;;;;;5076169;27;45442;-72
2022/01/21 09:05:57;;;;;;;;;6.00;4.00;;;;;;;;5079003;28;45427;-70
2022/01/21 09:08:24;;;;;;;;;6.25;5.25;;;;;;;;5076643;28;47326;-72
2022/01/21 09:10:53;;;;;;;;;9.50;6.50;;;;;;;;5076364;28;46388;-71
2022/01/21 09:13:19;;;;;;;;;5.00;5.00;;;;;;;;5075108;27;45483;-71
2022/01/21 09:15:44;;;;;;;;;5.25;5.00;;;;;;;;5082197;27;45465;-71
2022/01/21 09:18:10;;;;;;;;;5.50;4.25;;;;;;;;5078585;28;45380;-71
2022/01/21 09:20:36;;;;;;;;;3.00;3.00;;;;;;;;5070077;28;46968;-72
2022/01/21 09:23:02;;;;;;;;;5.25;3.25;;;;;;;;5076498;28;45482;-71
2022/01/21 09:25:27;;;;;;;;;6.25;6.25;;;;;;;;5076304;27;45522;-72
2022/01/21 09:27:53;;;;;;;;;5.00;5.00;;;;;;;;5076704;28;49167;-72
2022/01/21 09:30:18;;;;;;;;;6.50;4.50;;;;;;;;5090992;27;46230;-71
2022/01/21 09:32:43;;;;;;;;;6.00;6.00;;;;;;;;5077100;27;45256;-72
2022/01/21 09:35:10;;;;;;;;;7.50;6.25;;;;;;;;5078955;27;45625;-71
2022/01/21 09:37:35;;;;;;;;;6.75;5.00;;;;;;;;5073977;27;45968;-71
2022/01/21 09:40:00;;;;;;;;;8.00;6.25;;;;;;;;5077046;27;46019;-71
2022/01/21 09:42:26;;;;;;;;;4.50;4.50;;;;;;;;5077844;27;45687;-71
2022/01/21 09:44:51;;;;;;;;;7.00;5.25;;;;;;;;5078338;27;45463;-71
2022/01/21 09:47:18;;;;;;;;;5.00;4.00;;;;;;;;5081892;27;45754;-71
2022/01/21 09:49:44;;;;;;;;;10.00;7.25;;;;;;;;5081079;27;46314;-71
2022/01/21 09:52:10;;;;;;;;;3.00;3.00;;;;;;;;5086852;27;45424;-71
2022/01/21 09:54:43;;;;;;;;;7.50;5.25;;;;;;;;5077263;27;45376;-71
2022/01/21 09:57:09;;;;;;;;;7.50;6.25;;;;;;;;5073784;28;45278;-71
2022/01/21 09:59:36;;;;;;;;;8.00;6.00;;;;;;;;5074291;27;46201;-71
2022/01/21 10:02:05;;;;;;;;;5.00;5.00;;;;;;;;5074101;28;45319;-71
2022/01/21 10:04:32;;;;;;;;;7.50;6.00;;;;;;;;5075702;28;45644;-72
2022/01/21 10:06:57;;;;;;;;;6.50;6.00;;;;;;;;5075800;27;45328;-71
2022/01/21 10:09:23;;;;;;;;;5.00;5.00;;;;;;;;5088523;27;45462;-71
2022/01/21 10:11:49;;;;;;;;;4.50;4.50;;;;;;;;5059858;28;45375;-71
2022/01/21 10:14:16;;;;;;;;;8.00;4.75;;;;;;;;5077522;27;45501;-71
2022/01/21 10:16:45;;;;;;;;;6.00;5.75;;;;;;;;5080072;27;45516;-71
2022/01/21 10:19:11;;;;;;;;;9.00;7.00;;;;;;;;5075483;27;47190;-71
2022/01/21 10:21:43;;;;;;;;;6.25;5.00;;;;;;;;5083589;27;45375;-71
2022/01/21 10:24:10;;;;;;;;;7.50;6.00;;;;;;;;5073412;27;45229;-72
2022/01/21 10:26:44;;;;;;;;;9.25;5.25;;;;;;;;5076933;27;45664;-71
2022/01/21 10:29:09;;;;;;;;;6.75;6.00;;;;;;;;5080633;27;45457;-71
2022/01/21 10:31:35;;;;;;;;;6.75;5.25;;;;;;;;5086857;27;45377;-71
2022/01/21 10:34:03;;;;;;;;;6.25;5.75;;;;;;;;5077017;27;45608;-71
2022/01/21 10:36:34;;;;;;;;;8.25;5.50;;;;;;;;5076305;27;45503;-72
2022/01/21 10:39:19;;;;;;;;;7.00;5.00;;;;;;;;5077010;28;46189;-71
2022/01/21 10:41:46;;;;;;;;;7.50;5.00;;;;;;;;5081039;27;45462;-71
2022/01/21 10:44:17;;;;;;;;;6.25;5.75;;;;;;;;5077342;27;45402;-72
2022/01/21 10:46:46;;;;;;;;;9.00;5.50;;;;;;;;5076099;27;46008;-71
2022/01/21 10:49:12;;;;;;;;;8.75;6.00;;;;;;;;5085762;27;46098;-71
2022/01/21 10:51:38;;;;;;;;;8.25;6.75;;;;;;;;5072819;27;45435;-72
2022/01/21 10:54:12;;;;;;;;;5.75;5.50;;;;;;;;5076218;28;45394;-72
2022/01/21 10:56:37;;;;;;;;;8.25;6.25;;;;;;;;5074670;28;45347;-72
2022/01/21 10:59:02;;;;;;;;;7.00;7.00;;;;;;;;5073312;28;46074;-71
2022/01/21 11:01:30;;;;;;;;;5.25;5.25;;;;;;;;5075015;27;45560;-72
2022/01/21 11:03:55;;;;;;;;;9.50;6.00;;;;;;;;5072076;28;45470;-71
2022/01/21 11:06:23;;;;;;;;;5.75;3.75;;;;;;;;5073206;27;45386;-71
2022/01/21 11:08:49;;;;;;;;;8.00;6.00;;;;;;;;5072317;28;46054;-72
2022/01/21 11:11:20;;;;;;;;;7.25;7.25;;;;;;;;5076090;28;45471;-71
2022/01/21 11:13:46;;;;;;;;;9.25;7.50;;;;;;;;5076067;27;45355;-72
2022/01/21 11:16:15;;;;;;;;;5.75;5.00;;;;;;;;5079839;27;45351;-70
2022/01/21 11:18:50;;;;;;;;;6.75;5.50;;;;;;;;5074502;28;46264;-71
2022/01/21 11:21:16;;;;;;;;;6.50;6.00;;;;;;;;5072090;27;45446;-72
2022/01/21 11:23:42;;;;;;;;;7.75;6.50;;;;;;;;5075418;28;45474;-70
2022/01/21 11:26:12;;;;;;;;;6.00;6.00;;;;;;;;5074704;28;45456;-72
2022/01/21 11:28:40;;;;;;;;;8.25;6.50;;;;;;;;5074129;28;46179;-70
2022/01/21 11:31:06;;;;;;;;;9.75;6.50;;;;;;;;5061868;27;45331;-71
2022/01/21 11:33:31;;;;;;;;;10.00;8.00;;;;;;;;5075206;27;45475;-72
2022/01/21 11:35:57;;;;;;;;;8.00;7.00;;;;;;;;5074922;28;45446;-71
2022/01/21 11:38:25;;;;;;;;;8.75;5.50;;;;;;;;5074121;28;45429;-71
2022/01/21 11:40:50;;;;;;;;;9.00;6.50;;;;;;;;5074111;28;45608;-71
2022/01/21 11:43:16;;;;;;;;;7.75;5.50;;;;;;;;5080342;27;45371;-71
2022/01/21 11:46:06;;;;;;;;;6.75;6.00;;;;;;;;5072690;28;45398;-71
2022/01/21 11:51:19;;;;;;;;;10.50;7.25;;;;;;;;5078776;27;45860;-71
2022/01/21 11:54:05;;;;;;;;;5.00;3.00;;;;;;;;5073704;28;45339;-72
2022/01/21 11:56:45;;;;;;;;;7.00;7.00;;;;;;;;5072956;27;45478;-72
2022/01/21 11:59:37;;;;;;;;;7.25;6.00;;;;;;;;5072165;28;46357;-71
2022/01/21 12:02:23;;;;;;;;;9.25;7.25;;;;;;;;5077578;27;45428;-71
2022/01/21 12:04:50;;;;;;;;;8.75;7.00;;;;;;;;5071685;28;45560;-70
2022/01/21 12:07:34;;;;;;;;;7.75;6.25;;;;;;;;5072775;27;49322;-71
2022/01/21 12:09:59;;;;;;;;;9.75;7.00;;;;;;;;5058749;27;46433;-72
2022/01/21 12:12:49;;;;;;;;;6.00;6.00;;;;;;;;5056177;28;45857;-72
2022/01/21 12:15:21;;;;;;;;;7.75;6.00;;;;;;;;5073099;27;45593;-72
2022/01/21 12:17:52;;;;;;;;;8.75;6.50;;;;;;;;5051789;28;45540;-71
2022/01/21 12:20:18;;;;;;;;;6.50;6.25;;;;;;;;5072368;28;46490;-72
2022/01/21 12:22:43;;;;;;;;;5.25;5.00;;;;;;;;5071501;27;45650;-72
2022/01/21 12:25:09;;;;;;;;;7.00;7.00;;;;;;;;5073915;28;45301;-71
2022/01/21 12:27:36;;;;;;;;;11.25;8.00;;;;;;;;5073740;28;45575;-72
2022/01/21 12:30:20;;;;;;;;;9.25;8.00;;;;;;;;5074505;28;47074;-71
2022/01/21 12:32:51;;;;;;;;;9.00;6.75;;;;;;;;5074195;27;45474;-72
2022/01/21 12:35:18;;;;;;;;;9.25;6.75;;;;;;;;5072893;28;45494;-72
2022/01/21 12:39:05;;;;;;;;;10.25;7.25;;;;;;;;5073277;27;45375;-71
2022/01/21 12:40:47;;;;;;;;;5.50;4.50;;;;;;;;5075971;27;45822;-72
2022/01/21 12:43:31;;;;;;;;;7.75;6.00;;;;;;;;5073255;28;45464;-72
2022/01/21 12:46:07;;;;;;;;;6.00;6.00;;;;;;;;5059408;28;45506;-71
2022/01/21 12:48:36;;;;;;;;;7.25;6.50;;;;;;;;5075819;27;45374;-72
2022/01/21 12:51:14;;;;;;;;;7.25;6.75;;;;;;;;5056864;28;47237;-72
2022/01/21 12:55:55;;;;;;;;;11.50;7.25;;;;;;;;5073388;28;45231;-71
2022/01/21 12:56:26;;;;;;;;;5.50;4.25;;;;;;;;5072826;27;45295;-72
2022/01/21 12:58:52;;;;;;;;;6.75;6.75;;;;;;;;5073735;27;45161;-72
2022/01/21 13:01:19;;;;;;;;;8.25;6.75;;;;;;;;5082385;27;47297;-71
2022/01/21 13:03:49;;;;;;;;;6.00;6.00;;;;;;;;5073437;28;45577;-71
2022/01/21 13:06:30;;;;;;;;;10.25;7.25;;;;;;;;5074849;28;45439;-72
2022/01/21 13:08:59;;;;;;;;;5.25;5.25;;;;;;;;5073031;28;45401;-71
2022/01/21 13:11:25;;;;;;;;;8.75;7.00;;;;;;;;5073942;28;46126;-72
2022/01/21 13:14:45;;;;;;;;;5.50;5.50;;;;;;;;5075102;27;45488;-71
2022/01/21 13:17:00;;;;;;;;;9.00;7.00;;;;;;;;5071631;28;45386;-71
2022/01/21 13:19:25;;;;;;;;;11.25;7.00;;;;;;;;5075078;28;45618;-72
2022/01/21 13:21:50;;;;;;;;;6.25;6.00;;;;;;;;5076293;28;47046;-71
2022/01/21 13:24:27;;;;;;;;;9.25;8.00;;;;;;;;5077571;28;45353;-72
2022/01/21 13:26:53;;;;;;;;;9.00;7.00;;;;;;;;5078255;27;45523;-72
2022/01/21 13:29:26;;;;;;;;;7.00;6.00;;;;;;;;5052540;28;45674;-72
2022/01/21 13:31:52;;;;;;;;;9.00;6.00;;;;;;;;5068259;27;47446;-72
2022/01/21 13:34:19;;;;;;;;;4.25;4.00;;;;;;;;5059176;28;45524;-72
2022/01/21 13:36:52;;;;;;;;;8.75;6.25;;;;;;;;5076506;27;45462;-72
2022/01/21 13:39:23;;;;;;;;;6.00;4.50;;;;;;;;5077041;27;45490;-72
2022/01/21 13:41:59;;;;;;;;;6.75;5.50;;;;;;;;5077281;27;46292;-72
2022/01/21 13:44:25;;;;;;;;;6.25;6.00;;;;;;;;5078414;27;45735;-71
2022/01/21 13:46:50;;;;;;;;;8.00;5.00;;;;;;;;5075227;28;45409;-72
2022/01/21 13:49:21;;;;;;;;;3.25;2.75;;;;;;;;5060024;27;45485;-72
2022/01/21 13:51:52;;;;;;;;;7.25;6.00;;;;;;;;5062314;28;45376;-72
2022/01/21 13:54:18;;;;;;;;;9.25;6.00;;;;;;;;5077957;27;45447;-72
2022/01/21 13:56:47;;;;;;;;;10.75;8.00;;;;;;;;5080442;27;45445;-72
2022/01/21 13:59:12;;;;;;;;;5.75;5.75;;;;;;;;5081859;27;45535;-72
2022/01/21 14:01:37;;;;;;;;;7.00;6.00;;;;;;;;5085281;27;47319;-71
2022/01/21 14:04:07;;;;;;;;;6.00;6.00;;;;;;;;5077333;27;45467;-72
2022/01/21 14:06:32;;;;;;;;;5.00;5.00;;;;;;;;5075508;27;45519;-72
2022/01/21 14:09:00;;;;;;;;;4.75;4.75;;;;;;;;5077635;27;45528;-71
2022/01/21 14:11:46;;;;;;;;;7.75;6.50;;;;;;;;5074448;27;46473;-71
2022/01/21 14:14:11;;;;;;;;;6.00;6.00;;;;;;;;5075057;28;45547;-72
2022/01/21 14:16:43;;;;;;;;;8.75;6.00;;;;;;;;5058466;28;45635;-72
2022/01/21 14:19:10;;;;;;;;;4.75;4.75;;;;;;;;5074217;28;45361;-72
2022/01/21 14:21:36;;;;;;;;;9.50;5.00;;;;;;;;5075026;27;46942;-72
2022/01/21 14:24:13;;;;;;;;;6.00;6.00;;;;;;;;5050644;28;45698;-72
2022/01/21 14:26:43;;;;;;;;;10.00;6.00;;;;;;;;5075162;27;45841;-72
2022/01/21 14:29:08;;;;;;;;;2.00;2.00;;;;;;;;5072872;28;45386;-72
2022/01/21 14:31:35;;;;;;;;;8.50;6.00;;;;;;;;5073037;28;45566;-72
2022/01/21 14:34:02;;;;;;;;;7.50;3.50;;;;;;;;5073414;28;45533;-72
2022/01/21 14:36:27;;;;;;;;;7.75;5.75;;;;;;;;5075748;28;45320;-71
2022/01/21 14:38:53;;;;;;;;;5.50;5.50;;;;;;;;5077038;28;45473;-71
2022/01/21 14:41:20;;;;;;;;;4.50;4.50;;;;;;;;5072695;27;45663;-71
2022/01/21 14:43:49;;;;;;;;;7.25;5.00;;;;;;;;5076171;28;45541;-72
2022/01/21 14:46:23;;;;;;;;;6.00;5.00;;;;;;;;5076237;27;45404;-72
2022/01/21 14:48:55;;;;;;;;;7.00;6.25;;;;;;;;5060844;28;45459;-72
2022/01/21 14:51:24;;;;;;;;;6.50;5.75;;;;;;;;5082596;27;46197;-72
2022/01/21 14:53:54;;;;;;;;;6.00;5.00;;;;;;;;5074749;27;45459;-71
2022/01/21 14:56:22;;;;;;;;;6.50;5.00;;;;;;;;5073529;28;45211;-72
2022/01/21 14:58:48;;;;;;;;;5.00;5.00;;;;;;;;5073221;27;45354;-72
2022/01/21 15:01:13;;;;;;;;;5.00;5.00;;;;;;;;5087129;27;47132;-72
2022/01/21 15:03:38;;;;;;;;;6.00;4.50;;;;;;;;5080319;27;45394;-72
2022/01/21 15:06:08;;;;;;;;;5.50;5.50;;;;;;;;5076925;28;45335;-72
2022/01/21 15:08:38;;;;;;;;;6.75;6.50;;;;;;;;5074674;28;45513;-72
2022/01/21 15:11:43;;;;;;;;;7.25;5.75;;;;;;;;5072065;28;46549;-72
2022/01/21 15:14:33;;;;;;;;;7.75;5.50;;;;;;;;5073452;28;45319;-72
2022/01/21 15:16:59;;;;;;;;;5.00;5.00;;;;;;;;5074074;28;45445;-71
2022/01/21 15:19:32;;;;;;;;;4.75;4.75;;;;;;;;5074368;28;45589;-73
2022/01/21 15:21:59;;;;;;;;;4.75;4.75;;;;;;;;5077885;27;45350;-72
2022/01/21 15:24:24;;;;;;;;;7.00;5.00;;;;;;;;5078409;27;45575;-72
2022/01/21 15:26:49;;;;;;;;;6.75;5.25;;;;;;;;5077396;27;45350;-72
2022/01/21 15:29:15;;;;;;;;;4.00;3.25;;;;;;;;5074377;28;45363;-72
2022/01/21 15:31:40;;;;;;;;;5.00;5.00;;;;;;;;5072793;28;46944;-72
2022/01/21 15:34:08;;;;;;;;;7.00;4.00;;;;;;;;5077907;27;45518;-72